sensor_id;sensor_type;location;lat;lon;timestamp;pressure;altitude;pressure_sealevel;temperature;humidity
60307;BME280;46155;52.364;6.580;2023-04-06T03:02:37;101435.09;;;1.99;81.92
60307;BME280;46155;52.364;6.580;2023-04-06T03:05:03;101435.97;;;1.99;81.87
60307;BME280;46155;52.364;6.580;2023-04-06T03:07:28;101440.00;;;2.04;81.34
60307;BME280;46155;52.364;6.580;2023-04-06T03:09:54;101440.72;;;2.03;81.78
60307;BME280;46155;52.364;6.580;2023-04-06T03:12:19;101450.97;;;2.11;81.84
60307;BME280;46155;52.364;6.580;2023-04-06T03:14:45;101448.38;;;2.11;80.86
60307;BME280;46155;52.364;6.580;2023-04-06T03:17:10;101414.31;;;1.90;80.79
60307;BME280;46155;52.364;6.580;2023-04-06T03:19:36;101443.31;;;2.03;80.97
60307;BME280;46155;52.364;6.580;2023-04-06T03:22:01;101445.75;;;2.02;80.80
60307;BME280;46155;52.364;6.580;2023-04-06T03:24:27;101441.47;;;2.02;81.72
60307;BME280;46155;52.364;6.580;2023-04-06T03:26:52;101446.66;;;2.02;81.60
60307;BME280;46155;52.364;6.580;2023-04-06T03:29:17;101444.50;;;1.98;81.41
60307;BME280;46155;52.364;6.580;2023-04-06T03:31:43;101435.94;;;1.91;81.39
60307;BME280;46155;52.364;6.580;2023-04-06T03:34:08;101441.13;;;1.91;82.26
60307;BME280;46155;52.364;6.580;2023-04-06T03:36:34;101437.00;;;1.93;82.33
60307;BME280;46155;52.364;6.580;2023-04-06T03:39:00;101443.13;;;1.93;82.23
60307;BME280;46155;52.364;6.580;2023-04-06T03:41:25;101439.00;;;1.95;82.34
60307;BME280;46155;52.364;6.580;2023-04-06T03:43:51;101430.91;;;1.92;81.35
60307;BME280;46155;52.364;6.580;2023-04-06T03:46:16;101436.25;;;1.94;81.83
60307;BME280;46155;52.364;6.580;2023-04-06T03:48:42;101433.50;;;1.92;81.75
60307;BME280;46155;52.364;6.580;2023-04-06T03:51:07;101438.53;;;1.91;81.93
60307;BME280;46155;52.364;6.580;2023-04-06T03:53:32;101434.09;;;1.89;81.85
60307;BME280;46155;52.364;6.580;2023-04-06T03:55:58;101432.25;;;1.88;81.67
60307;BME280;46155;52.364;6.580;2023-04-06T03:58:23;101428.00;;;1.89;82.23
60307;BME280;46155;52.364;6.580;2023-04-06T04:00:48;101425.59;;;1.91;82.16
60307;BME280;46155;52.364;6.580;2023-04-06T04:03:13;101432.25;;;1.88;81.57
60307;BME280;46155;52.364;6.580;2023-04-06T04:05:39;101426.28;;;1.81;81.80
60307;BME280;46155;52.364;6.580;2023-04-06T04:08:04;101422.13;;;1.74;82.18
60307;BME280;46155;52.364;6.580;2023-04-06T04:10:30;101424.56;;;1.72;82.28
60307;BME280;46155;52.364;6.580;2023-04-06T04:12:56;101414.19;;;1.72;83.04
60307;BME280;46155;52.364;6.580;2023-04-06T04:15:22;101420.78;;;1.78;83.40
60307;BME280;46155;52.364;6.580;2023-04-06T04:17:47;101417.88;;;1.75;82.50
60307;BME280;46155;52.364;6.580;2023-04-06T04:20:14;101422.38;;;1.68;82.41
60307;BME280;46155;52.364;6.580;2023-04-06T04:22:40;101426.03;;;1.62;82.66
60307;BME280;46155;52.364;6.580;2023-04-06T04:25:05;101428.41;;;1.60;83.07
60307;BME280;46155;52.364;6.580;2023-04-06T04:27:31;101419.91;;;1.61;82.91
60307;BME280;46155;52.364;6.580;2023-04-06T04:29:56;101420.66;;;1.60;82.25
60307;BME280;46155;52.364;6.580;2023-04-06T04:32:21;101424.75;;;1.58;82.50
60307;BME280;46155;52.364;6.580;2023-04-06T04:34:47;101421.53;;;1.52;82.65
60307;BME280;46155;52.364;6.580;2023-04-06T04:37:12;101421.84;;;1.55;83.68
60307;BME280;46155;52.364;6.580;2023-04-06T04:39:37;101419.59;;;1.58;82.92
60307;BME280;46155;52.364;6.580;2023-04-06T04:42:02;101419.00;;;1.61;83.57
60307;BME280;46155;52.364;6.580;2023-04-06T04:44:28;101426.94;;;1.62;82.57
60307;BME280;46155;52.364;6.580;2023-04-06T04:46:53;101425.25;;;1.63;83.25
60307;BME280;46155;52.364;6.580;2023-04-06T04:49:18;101420.22;;;1.64;84.13
60307;BME280;46155;52.364;6.580;2023-04-06T04:51:43;101416.84;;;1.57;82.74
60307;BME280;46155;52.364;6.580;2023-04-06T04:54:09;101418.94;;;1.52;82.73
60307;BME280;46155;52.364;6.580;2023-04-06T04:56:34;101415.03;;;1.40;82.98
60307;BME280;46155;52.364;6.580;2023-04-06T04:59:00;101405.88;;;1.34;83.60
60307;BME280;46155;52.364;6.580;2023-04-06T05:01:25;101415.47;;;1.35;83.08
60307;BME280;46155;52.364;6.580;2023-04-06T05:03:50;101419.13;;;1.37;83.50
60307;BME280;46155;52.364;6.580;2023-04-06T05:06:16;101410.63;;;1.38;83.34
60307;BME280;46155;52.364;6.580;2023-04-06T05:08:42;101418.38;;;1.38;83.50
60307;BME280;46155;52.364;6.580;2023-04-06T05:11:08;101418.38;;;1.38;83.78
60307;BME280;46155;52.364;6.580;2023-04-06T05:13:33;101417.63;;;1.40;84.34
60307;BME280;46155;52.364;6.580;2023-04-06T05:15:58;101417.38;;;1.45;84.35
60307;BME280;46155;52.364;6.580;2023-04-06T05:18:25;101405.34;;;1.46;83.71
60307;BME280;46155;52.364;6.580;2023-04-06T05:20:50;101414.84;;;1.54;83.31
60307;BME280;46155;52.364;6.580;2023-04-06T05:23:16;101415.94;;;1.56;83.16
60307;BME280;46155;52.364;6.580;2023-04-06T05:25:42;101418.06;;;1.60;82.86
60307;BME280;46155;52.364;6.580;2023-04-06T05:28:07;101408.66;;;1.61;83.17
60307;BME280;46155;52.364;6.580;2023-04-06T05:30:32;101414.31;;;1.90;84.80
60307;BME280;46155;52.364;6.580;2023-04-06T05:32:58;101409.34;;;2.00;82.14
60307;BME280;46155;52.364;6.580;2023-04-06T05:35:23;101416.25;;;2.09;81.19
60307;BME280;46155;52.364;6.580;2023-04-06T05:37:49;101412.88;;;2.10;80.60
60307;BME280;46155;52.364;6.580;2023-04-06T05:40:14;101414.72;;;2.11;80.04
60307;BME280;46155;52.364;6.580;2023-04-06T05:42:41;101408.03;;;2.13;80.50
60307;BME280;46155;52.364;6.580;2023-04-06T05:45:08;101409.41;;;2.18;79.89
60307;BME280;46155;52.364;6.580;2023-04-06T05:47:34;101402.22;;;2.15;79.35
60307;BME280;46155;52.364;6.580;2023-04-06T05:50:00;101411.31;;;2.36;83.14
60307;BME280;46155;52.364;6.580;2023-04-06T05:52:25;101409.38;;;2.43;79.72
60307;BME280;46155;52.364;6.580;2023-04-06T05:54:51;101413.59;;;2.33;79.18
60307;BME280;46155;52.364;6.580;2023-04-06T05:57:17;101411.13;;;2.26;79.40
60307;BME280;46155;52.364;6.580;2023-04-06T05:59:42;101412.47;;;2.22;78.88
60307;BME280;46155;52.364;6.580;2023-04-06T06:02:08;101400.16;;;2.20;79.37
60307;BME280;46155;52.364;6.580;2023-04-06T06:04:33;101405.59;;;2.14;79.43
60307;BME280;46155;52.364;6.580;2023-04-06T06:06:58;101406.19;;;2.12;79.66
60307;BME280;46155;52.364;6.580;2023-04-06T06:09:24;101405.25;;;2.11;80.32
60307;BME280;46155;52.364;6.580;2023-04-06T06:11:49;101396.31;;;2.16;79.66
60307;BME280;46155;52.364;6.580;2023-04-06T06:14:15;101401.63;;;2.18;80.36
60307;BME280;46155;52.364;6.580;2023-04-06T06:16:40;101404.88;;;2.24;80.91
60307;BME280;46155;52.364;6.580;2023-04-06T06:19:05;101402.88;;;2.21;80.23
60307;BME280;46155;52.364;6.580;2023-04-06T06:21:31;101398.63;;;2.31;80.44
60307;BME280;46155;52.364;6.580;2023-04-06T06:23:56;101398.38;;;2.45;81.50
60307;BME280;46155;52.364;6.580;2023-04-06T06:26:22;101397.84;;;2.65;79.34
60307;BME280;46155;52.364;6.580;2023-04-06T06:28:47;101400.31;;;2.81;78.26
60307;BME280;46155;52.364;6.580;2023-04-06T06:31:13;101389.34;;;3.01;78.83
60307;BME280;46155;52.364;6.580;2023-04-06T06:33:38;101393.00;;;3.38;78.04
60307;BME280;46155;52.364;6.580;2023-04-06T06:36:03;101395.59;;;3.56;75.94
60307;BME280;46155;52.364;6.580;2023-04-06T06:38:28;101401.16;;;3.87;76.63
60307;BME280;46155;52.364;6.580;2023-04-06T06:40:54;101398.63;;;4.14;75.43
60307;BME280;46155;52.364;6.580;2023-04-06T06:43:19;101391.34;;;4.38;74.26
60307;BME280;46155;52.364;6.580;2023-04-06T06:45:44;101390.63;;;4.58;73.60
60307;BME280;46155;52.364;6.580;2023-04-06T06:48:10;101387.00;;;4.75;72.21
60307;BME280;46155;52.364;6.580;2023-04-06T06:50:36;101391.59;;;4.97;71.23
60307;BME280;46155;52.364;6.580;2023-04-06T06:53:01;101390.41;;;5.12;71.08
60307;BME280;46155;52.364;6.580;2023-04-06T06:55:26;101402.50;;;5.31;69.91
60307;BME280;46155;52.364;6.580;2023-04-06T06:57:53;101393.34;;;5.45;70.17
60307;BME280;46155;52.364;6.580;2023-04-06T07:00:18;101394.59;;;5.59;69.23
60307;BME280;46155;52.364;6.580;2023-04-06T07:02:46;101395.03;;;5.74;68.86
60307;BME280;46155;52.364;6.580;2023-04-06T07:05:11;101388.72;;;5.91;68.37
60307;BME280;46155;52.364;6.580;2023-04-06T07:07:37;101382.16;;;6.05;67.86
60307;BME280;46155;52.364;6.580;2023-04-06T07:10:02;101380.59;;;6.07;66.15
60307;BME280;46155;52.364;6.580;2023-04-06T07:12:27;101387.16;;;6.12;65.39
60307;BME280;46155;52.364;6.580;2023-04-06T07:14:53;101380.78;;;6.18;67.77
60307;BME280;46155;52.364;6.580;2023-04-06T07:17:18;101382.00;;;6.32;66.17
60307;BME280;46155;52.364;6.580;2023-04-06T07:19:44;101375.50;;;6.48;66.65
60307;BME280;46155;52.364;6.580;2023-04-06T07:22:10;101384.91;;;6.77;67.28
60307;BME280;46155;52.364;6.580;2023-04-06T07:24:35;101388.94;;;6.94;66.77
60307;BME280;46155;52.364;6.580;2023-04-06T07:27:00;101383.69;;;7.14;65.66
60307;BME280;46155;52.364;6.580;2023-04-06T07:29:26;101379.66;;;7.18;64.78
60307;BME280;46155;52.364;6.580;2023-04-06T07:31:52;101379.53;;;7.16;65.41
60307;BME280;46155;52.364;6.580;2023-04-06T07:34:18;101383.69;;;7.24;65.36
60307;BME280;46155;52.364;6.580;2023-04-06T07:36:43;101382.06;;;7.47;65.32
60307;BME280;46155;52.364;6.580;2023-04-06T07:39:08;101379.91;;;7.64;63.41
60307;BME280;46155;52.364;6.580;2023-04-06T07:41:34;101382.00;;;7.68;64.11
60307;BME280;46155;52.364;6.580;2023-04-06T07:43:59;101385.25;;;7.65;61.32
60307;BME280;46155;52.364;6.580;2023-04-06T07:46:25;101386.00;;;7.42;61.88
60307;BME280;46155;52.364;6.580;2023-04-06T07:48:50;101388.56;;;7.52;62.79
60307;BME280;46155;52.364;6.580;2023-04-06T07:51:16;101385.47;;;7.46;63.60
60307;BME280;46155;52.364;6.580;2023-04-06T07:53:43;101384.97;;;7.30;63.41
60307;BME280;46155;52.364;6.580;2023-04-06T07:56:09;101384.22;;;7.20;62.95
60307;BME280;46155;52.364;6.580;2023-04-06T07:58:34;101379.50;;;7.27;63.58
60307;BME280;46155;52.364;6.580;2023-04-06T08:00:59;101387.28;;;7.37;64.47
60307;BME280;46155;52.364;6.580;2023-04-06T08:03:26;101381.13;;;7.57;65.51
60307;BME280;46155;52.364;6.580;2023-04-06T08:05:52;101371.34;;;7.87;66.57
60307;BME280;46155;52.364;6.580;2023-04-06T08:08:18;101375.84;;;8.00;62.58
60307;BME280;46155;52.364;6.580;2023-04-06T08:10:43;101369.22;;;8.15;63.48
60307;BME280;46155;52.364;6.580;2023-04-06T08:13:08;101370.13;;;8.38;62.19
60307;BME280;46155;52.364;6.580;2023-04-06T08:15:34;101371.03;;;8.38;60.67
60307;BME280;46155;52.364;6.580;2023-04-06T08:17:59;101375.47;;;8.61;61.18
60307;BME280;46155;52.364;6.580;2023-04-06T08:20:25;101363.13;;;8.83;61.58
60307;BME280;46155;52.364;6.580;2023-04-06T08:22:50;101367.28;;;9.03;60.49
60307;BME280;46155;52.364;6.580;2023-04-06T08:25:15;101377.09;;;9.17;60.63
60307;BME280;46155;52.364;6.580;2023-04-06T08:27:41;101370.72;;;9.25;58.04
60307;BME280;46155;52.364;6.580;2023-04-06T08:30:06;101373.56;;;9.28;57.39
60307;BME280;46155;52.364;6.580;2023-04-06T08:32:32;101363.22;;;9.42;60.43
60307;BME280;46155;52.364;6.580;2023-04-06T08:34:57;101373.34;;;9.73;57.86
60307;BME280;46155;52.364;6.580;2023-04-06T08:37:23;101368.66;;;9.69;57.54
60307;BME280;46155;52.364;6.580;2023-04-06T08:39:48;101362.50;;;9.80;58.34
60307;BME280;46155;52.364;6.580;2023-04-06T08:42:19;101359.09;;;9.81;57.94
60307;BME280;46155;52.364;6.580;2023-04-06T08:44:46;101356.22;;;9.78;56.94
60307;BME280;46155;52.364;6.580;2023-04-06T08:47:12;101358.19;;;9.69;56.61
60307;BME280;46155;52.364;6.580;2023-04-06T08:49:37;101358.88;;;9.66;57.56
60307;BME280;46155;52.364;6.580;2023-04-06T08:52:06;101353.28;;;9.61;57.75
60307;BME280;46155;52.364;6.580;2023-04-06T08:54:32;101334.94;;;9.38;57.70
60307;BME280;46155;52.364;6.580;2023-04-06T08:56:57;101352.59;;;9.52;59.14
60307;BME280;46155;52.364;6.580;2023-04-06T08:59:24;101350.56;;;9.48;58.18
60307;BME280;46155;52.364;6.580;2023-04-06T09:01:51;101347.03;;;9.36;57.32
60307;BME280;46155;52.364;6.580;2023-04-06T09:04:17;101347.84;;;9.23;58.09
60307;BME280;46155;52.364;6.580;2023-04-06T09:06:43;101345.06;;;9.21;57.80
60307;BME280;46155;52.364;6.580;2023-04-06T09:09:08;101352.50;;;9.15;57.76
60307;BME280;46155;52.364;6.580;2023-04-06T09:11:48;101344.28;;;9.22;58.28
60307;BME280;46155;52.364;6.580;2023-04-06T09:14:14;101351.81;;;9.29;57.10
60307;BME280;46155;52.364;6.580;2023-04-06T09:16:41;101347.84;;;9.35;58.66
60307;BME280;46155;52.364;6.580;2023-04-06T09:19:07;101339.50;;;9.40;57.93
60307;BME280;46155;52.364;6.580;2023-04-06T09:21:33;101337.44;;;9.48;58.25
60307;BME280;46155;52.364;6.580;2023-04-06T09:24:00;101343.81;;;9.63;57.64
60307;BME280;46155;52.364;6.580;2023-04-06T09:26:26;101342.22;;;9.77;56.99
60307;BME280;46155;52.364;6.580;2023-04-06T09:28:58;101342.41;;;9.92;56.29
60307;BME280;46155;52.364;6.580;2023-04-06T09:31:30;101330.97;;;10.04;54.27
60307;BME280;46155;52.364;6.580;2023-04-06T09:33:58;101336.38;;;10.19;55.21
60307;BME280;46155;52.364;6.580;2023-04-06T09:36:35;101341.13;;;10.36;53.54
60307;BME280;46155;52.364;6.580;2023-04-06T09:39:03;101338.03;;;10.67;53.98
60307;BME280;46155;52.364;6.580;2023-04-06T09:41:34;101324.84;;;10.92;53.95
60307;BME280;46155;52.364;6.580;2023-04-06T09:44:10;101331.00;;;10.93;52.49
60307;BME280;46155;52.364;6.580;2023-04-06T09:46:40;101327.78;;;10.97;52.57
60307;BME280;46155;52.364;6.580;2023-04-06T09:49:07;101329.72;;;10.86;50.44
60307;BME280;46155;52.364;6.580;2023-04-06T09:51:36;101323.53;;;10.85;53.18
60307;BME280;46155;52.364;6.580;2023-04-06T09:54:02;101327.88;;;10.85;53.14
60307;BME280;46155;52.364;6.580;2023-04-06T09:56:38;101322.81;;;10.88;52.36
60307;BME280;46155;52.364;6.580;2023-04-06T09:59:09;101320.59;;;10.81;51.67
60307;BME280;46155;52.364;6.580;2023-04-06T10:01:35;101324.22;;;10.83;50.57
60307;BME280;46155;52.364;6.580;2023-04-06T10:06:51;101313.13;;;10.87;50.75
60307;BME280;46155;52.364;6.580;2023-04-06T10:09:18;101315.19;;;11.05;51.21
60307;BME280;46155;52.364;6.580;2023-04-06T10:11:48;101321.97;;;11.14;49.13
60307;BME280;46155;52.364;6.580;2023-04-06T10:14:15;101308.00;;;11.15;49.52
60307;BME280;46155;52.364;6.580;2023-04-06T10:16:40;101307.09;;;11.15;49.41
60307;BME280;46155;52.364;6.580;2023-04-06T10:19:13;101304.06;;;11.22;49.99
60307;BME280;46155;52.364;6.580;2023-04-06T10:21:45;101301.44;;;11.35;49.50
60307;BME280;46155;52.364;6.580;2023-04-06T10:24:13;101305.06;;;11.51;49.21
60307;BME280;46155;52.364;6.580;2023-04-06T10:26:39;101299.00;;;11.52;49.43
60307;BME280;46155;52.364;6.580;2023-04-06T10:29:05;101300.50;;;11.62;49.22
60307;BME280;46155;52.364;6.580;2023-04-06T10:31:31;101299.50;;;11.46;48.67
60307;BME280;46155;52.364;6.580;2023-04-06T10:33:57;101299.63;;;11.34;47.48
60307;BME280;46155;52.364;6.580;2023-04-06T10:36:25;101297.56;;;11.44;48.18
60307;BME280;46155;52.364;6.580;2023-04-06T10:38:56;101294.34;;;11.61;49.12
60307;BME280;46155;52.364;6.580;2023-04-06T10:41:22;101292.91;;;11.66;47.97
60307;BME280;46155;52.364;6.580;2023-04-06T10:43:55;101286.75;;;11.66;48.29
60307;BME280;46155;52.364;6.580;2023-04-06T10:46:25;101298.16;;;11.66;47.14
60307;BME280;46155;52.364;6.580;2023-04-06T10:48:51;101293.31;;;11.73;47.48
60307;BME280;46155;52.364;6.580;2023-04-06T10:51:18;101282.97;;;11.76;46.46
60307;BME280;46155;52.364;6.580;2023-04-06T10:53:45;101284.75;;;11.90;46.34
60307;BME280;46155;52.364;6.580;2023-04-06T10:56:14;101278.19;;;11.97;47.22
60307;BME280;46155;52.364;6.580;2023-04-06T10:58:51;101289.38;;;12.08;46.98
60307;BME280;46155;52.364;6.580;2023-04-06T11:01:18;101277.25;;;12.10;46.77
60307;BME280;46155;52.364;6.580;2023-04-06T11:03:44;101277.16;;;12.23;46.27
60307;BME280;46155;52.364;6.580;2023-04-06T11:06:10;101283.00;;;12.32;46.22
60307;BME280;46155;52.364;6.580;2023-04-06T11:08:36;101264.59;;;12.32;45.57
60307;BME280;46155;52.364;6.580;2023-04-06T11:11:20;101283.38;;;12.38;45.21
60307;BME280;46155;52.364;6.580;2023-04-06T11:19:03;101279.25;;;12.72;45.86
60307;BME280;46155;52.364;6.580;2023-04-06T11:21:39;101272.88;;;12.68;45.21
60307;BME280;46155;52.364;6.580;2023-04-06T11:24:31;101268.81;;;12.73;47.81
60307;BME280;46155;52.364;6.580;2023-04-06T11:26:57;101262.97;;;12.64;44.44
60307;BME280;46155;52.364;6.580;2023-04-06T11:29:28;101271.09;;;12.67;45.86
60307;BME280;46155;52.364;6.580;2023-04-06T11:34:25;101268.69;;;12.57;44.14
60307;BME280;46155;52.364;6.580;2023-04-06T11:36:55;101276.34;;;12.67;46.48
60307;BME280;46155;52.364;6.580;2023-04-06T11:39:25;101271.72;;;12.63;45.87
60307;BME280;46155;52.364;6.580;2023-04-06T11:41:52;101272.97;;;12.55;46.41
60307;BME280;46155;52.364;6.580;2023-04-06T11:44:42;101268.69;;;12.57;45.13
60307;BME280;46155;52.364;6.580;2023-04-06T11:47:11;101265.69;;;12.66;46.49
60307;BME280;46155;52.364;6.580;2023-04-06T11:49:38;101259.25;;;12.75;45.99
60307;BME280;46155;52.364;6.580;2023-04-06T11:52:23;101263.50;;;12.88;48.37
60307;BME280;46155;52.364;6.580;2023-04-06T11:54:50;101258.53;;;12.93;46.45
60307;BME280;46155;52.364;6.580;2023-04-06T11:57:17;101253.16;;;12.77;46.22
60307;BME280;46155;52.364;6.580;2023-04-06T11:59:43;101260.19;;;12.76;45.71
60307;BME280;46155;52.364;6.580;2023-04-06T12:02:08;101269.59;;;12.72;46.45
60307;BME280;46155;52.364;6.580;2023-04-06T12:04:34;101268.16;;;12.63;46.73
60307;BME280;46155;52.364;6.580;2023-04-06T12:07:00;101271.72;;;12.63;46.60
60307;BME280;46155;52.364;6.580;2023-04-06T12:09:25;101256.38;;;12.56;48.02
60307;BME280;46155;52.364;6.580;2023-04-06T12:11:51;101264.25;;;12.56;49.14
60307;BME280;46155;52.364;6.580;2023-04-06T12:14:16;101257.22;;;12.42;47.97
60307;BME280;46155;52.364;6.580;2023-04-06T12:16:42;101259.88;;;12.42;49.09
60307;BME280;46155;52.364;6.580;2023-04-06T12:19:07;101258.97;;;12.41;48.89
60307;BME280;46155;52.364;6.580;2023-04-06T12:21:34;101254.91;;;12.46;49.10
60307;BME280;46155;52.364;6.580;2023-04-06T12:24:01;101258.88;;;12.39;49.64
60307;BME280;46155;52.364;6.580;2023-04-06T12:26:27;101257.44;;;12.45;50.88
60307;BME280;46155;52.364;6.580;2023-04-06T12:28:52;101254.91;;;12.46;50.51
60307;BME280;46155;52.364;6.580;2023-04-06T12:31:20;101259.78;;;12.40;51.68
60307;BME280;46155;52.364;6.580;2023-04-06T12:33:47;101256.88;;;12.35;50.34
60307;BME280;46155;52.364;6.580;2023-04-06T12:36:14;101262.75;;;12.31;51.01
60307;BME280;46155;52.364;6.580;2023-04-06T12:38:40;101261.19;;;12.20;50.63
60307;BME280;46155;52.364;6.580;2023-04-06T12:41:06;101255.38;;;12.11;51.90
60307;BME280;46155;52.364;6.580;2023-04-06T12:43:32;101262.97;;;12.06;52.05
60307;BME280;46155;52.364;6.580;2023-04-06T12:45:57;101248.72;;;11.89;51.77
60307;BME280;46155;52.364;6.580;2023-04-06T12:48:22;101253.53;;;11.81;52.01
60307;BME280;46155;52.364;6.580;2023-04-06T12:51:01;101255.44;;;11.84;52.16
60307;BME280;46155;52.364;6.580;2023-04-06T12:53:27;101258.50;;;11.77;54.02
60307;BME280;46155;52.364;6.580;2023-04-06T12:55:54;101257.03;;;11.82;53.67
60307;BME280;46155;52.364;6.580;2023-04-06T12:58:20;101257.03;;;11.82;53.42
60307;BME280;46155;52.364;6.580;2023-04-06T13:00:47;101262.50;;;11.85;54.57
60307;BME280;46155;52.364;6.580;2023-04-06T13:03:12;101262.84;;;11.76;54.33
60307;BME280;46155;52.364;6.580;2023-04-06T13:05:45;101254.75;;;11.73;55.40
60307;BME280;46155;52.364;6.580;2023-04-06T13:08:11;101259.41;;;11.77;54.15
60307;BME280;46155;52.364;6.580;2023-04-06T13:10:36;101258.81;;;11.68;55.25
60307;BME280;46155;52.364;6.580;2023-04-06T13:13:02;101267.63;;;11.68;54.63
60307;BME280;46155;52.364;6.580;2023-04-06T13:15:27;101257.00;;;11.67;53.37
60307;BME280;46155;52.364;6.580;2023-04-06T13:17:52;101259.13;;;11.59;54.82
60307;BME280;46155;52.364;6.580;2023-04-06T13:20:18;101253.50;;;11.53;53.92
60307;BME280;46155;52.364;6.580;2023-04-06T13:22:43;101245.50;;;11.51;53.82
60307;BME280;46155;52.364;6.580;2023-04-06T13:25:08;101239.53;;;11.54;54.15
60307;BME280;46155;52.364;6.580;2023-04-06T13:27:34;101249.66;;;11.48;53.55
60307;BME280;46155;52.364;6.580;2023-04-06T13:30:01;101246.03;;;11.46;53.52
60307;BME280;46155;52.364;6.580;2023-04-06T13:32:26;101241.16;;;11.52;54.61
60307;BME280;46155;52.364;6.580;2023-04-06T13:34:54;101240.34;;;11.53;54.76
60307;BME280;46155;52.364;6.580;2023-04-06T13:37:20;101248.03;;;11.50;54.00
60307;BME280;46155;52.364;6.580;2023-04-06T13:39:45;101237.44;;;11.48;55.30
60307;BME280;46155;52.364;6.580;2023-04-06T13:42:10;101237.34;;;11.47;54.41
60307;BME280;46155;52.364;6.580;2023-04-06T13:44:36;101238.75;;;11.42;54.86
60307;BME280;46155;52.364;6.580;2023-04-06T13:47:01;101243.63;;;11.35;54.99
60307;BME280;46155;52.364;6.580;2023-04-06T13:49:26;101255.22;;;11.39;55.99
60307;BME280;46155;52.364;6.580;2023-04-06T13:51:52;101245.94;;;11.17;56.87
60307;BME280;46155;52.364;6.580;2023-04-06T13:54:17;101239.97;;;11.07;58.05
60307;BME280;46155;52.364;6.580;2023-04-06T13:56:42;101245.03;;;11.03;60.60
60307;BME280;46155;52.364;6.580;2023-04-06T13:59:08;101236.47;;;11.06;60.35
60307;BME280;46155;52.364;6.580;2023-04-06T14:01:33;101236.38;;;11.05;60.71
60307;BME280;46155;52.364;6.580;2023-04-06T14:03:58;101242.03;;;10.97;61.72
60307;BME280;46155;52.364;6.580;2023-04-06T14:06:24;101251.31;;;10.92;63.74
60307;BME280;46155;52.364;6.580;2023-04-06T14:08:49;101232.91;;;10.92;65.37
60307;BME280;46155;52.364;6.580;2023-04-06T14:11:15;101241.94;;;10.96;66.61
60307;BME280;46155;52.364;6.580;2023-04-06T14:13:41;101244.22;;;10.91;66.58
60307;BME280;46155;52.364;6.580;2023-04-06T14:16:07;101241.19;;;10.85;67.79
60307;BME280;46155;52.364;6.580;2023-04-06T14:18:33;101238.38;;;10.82;69.33
60307;BME280;46155;52.364;6.580;2023-04-06T14:21:00;101251.91;;;10.75;70.17
60307;BME280;46155;52.364;6.580;2023-04-06T14:23:27;101250.88;;;10.59;71.97
60307;BME280;46155;52.364;6.580;2023-04-06T14:26:06;101247.78;;;10.40;72.34
60307;BME280;46155;52.364;6.580;2023-04-06T14:28:32;101240.91;;;10.42;73.58
60307;BME280;46155;52.364;6.580;2023-04-06T14:31:01;101245.25;;;10.41;74.48
60307;BME280;46155;52.364;6.580;2023-04-06T14:33:29;101239.91;;;10.40;75.75
60307;BME280;46155;52.364;6.580;2023-04-06T14:35:55;101246.91;;;10.27;75.97
60307;BME280;46155;52.364;6.580;2023-04-06T14:38:21;101241.44;;;10.24;76.55
60307;BME280;46155;52.364;6.580;2023-04-06T14:40:46;101242.91;;;10.07;79.86
60307;BME280;46155;52.364;6.580;2023-04-06T14:43:12;101247.66;;;10.13;80.76
60307;BME280;46155;52.364;6.580;2023-04-06T14:45:37;101248.84;;;10.05;82.69
60307;BME280;46155;52.364;6.580;2023-04-06T14:48:04;101246.59;;;9.97;83.51
60307;BME280;46155;52.364;6.580;2023-04-06T14:50:31;101246.53;;;9.84;84.85
60307;BME280;46155;52.364;6.580;2023-04-06T14:52:56;101243.25;;;9.75;86.85
60307;BME280;46155;52.364;6.580;2023-04-06T14:55:22;101249.44;;;9.63;88.65
60307;BME280;46155;52.364;6.580;2023-04-06T14:57:47;101242.09;;;9.46;91.11
60307;BME280;46155;52.364;6.580;2023-04-06T15:00:13;101248.69;;;9.41;92.09
60307;BME280;46155;52.364;6.580;2023-04-06T15:02:39;101251.66;;;9.34;94.86
60307;BME280;46155;52.364;6.580;2023-04-06T15:05:05;101250.53;;;9.18;97.46
60307;BME280;46155;52.364;6.580;2023-04-06T15:07:30;101248.28;;;9.11;98.45
60307;BME280;46155;52.364;6.580;2023-04-06T15:09:56;101248.16;;;9.09;100.00
60307;BME280;46155;52.364;6.580;2023-04-06T15:12:22;101244.44;;;9.06;100.00
60307;BME280;46155;52.364;6.580;2023-04-06T15:14:47;101242.72;;;8.94;100.00
60307;BME280;46155;52.364;6.580;2023-04-06T15:17:12;101241.69;;;8.92;100.00
60307;BME280;46155;52.364;6.580;2023-04-06T15:19:38;101236.66;;;8.95;100.00
60307;BME280;46155;52.364;6.580;2023-04-06T15:22:03;101231.53;;;8.97;100.00
60307;BME280;46155;52.364;6.580;2023-04-06T15:24:28;101230.63;;;8.96;100.00
60307;BME280;46155;52.364;6.580;2023-04-06T15:26:53;101232.00;;;8.91;100.00
60307;BME280;46155;52.364;6.580;2023-04-06T15:29:19;101227.22;;;8.86;100.00
60307;BME280;46155;52.364;6.580;2023-04-06T15:31:44;101227.66;;;8.80;100.00
60307;BME280;46155;52.364;6.580;2023-04-06T15:34:09;101224.25;;;8.81;100.00
60307;BME280;46155;52.364;6.580;2023-04-06T15:36:35;101232.22;;;8.83;100.00
60307;BME280;46155;52.364;6.580;2023-04-06T15:39:01;101226.19;;;8.84;100.00
60307;BME280;46155;52.364;6.580;2023-04-06T15:41:28;101225.88;;;8.79;100.00
60307;BME280;46155;52.364;6.580;2023-04-06T15:43:54;101225.38;;;8.73;100.00
60307;BME280;46155;52.364;6.580;2023-04-06T15:46:20;101230.19;;;8.67;100.00
60307;BME280;46155;52.364;6.580;2023-04-06T15:48:46;101236.31;;;8.55;100.00
60307;BME280;46155;52.364;6.580;2023-04-06T15:51:11;101237.66;;;8.50;100.00
60307;BME280;46155;52.364;6.580;2023-04-06T15:53:37;101240.09;;;8.37;100.00
60307;BME280;46155;52.364;6.580;2023-04-06T15:56:04;101235.44;;;8.33;100.00
60307;BME280;46155;52.364;6.580;2023-04-06T15:58:29;101235.78;;;8.37;100.00
60307;BME280;46155;52.364;6.580;2023-04-06T16:00:56;101235.78;;;8.37;100.00
60307;BME280;46155;52.364;6.580;2023-04-06T16:03:22;101239.31;;;8.38;100.00